METAR Data
IDs: Format: Raw Decoded Include TAF

Data at: 1122 UTC 28 Sep 2021

KFMY 281053Z 06003KT 10SM CLR 23/18 A3002 RMK AO2 SLP166 T02280183
KFMY 280953Z 05004KT 10SM CLR 23/19 A3001 RMK AO2 SLP163 T02280189
KFMY 280853Z 07004KT 10SM CLR 23/19 A2999 RMK AO2 SLP158 T02280189 56008
KFMY 280753Z 07004KT 10SM CLR 23/19 A3000 RMK AO2 SLP161 T02330189
KFMY 280653Z 07005KT 10SM CLR 23/19 A3000 RMK AO2 SLP162 T02330189
KFMY 280553Z 09003KT 10SM CLR 24/19 A3002 RMK AO2 SLP166 T02390194 10278 20239 58011
KFMY 280453Z 09005KT 10SM CLR 24/19 A3003 RMK AO2 SLP171 T02440194 403280244
KFMY 280353Z 08005KT 10SM CLR 25/19 A3005 RMK AO2 SLP176 T02500189
KFMY 280253Z 08007KT 10SM CLR 26/18 A3005 RMK AO2 SLP177 T02610183 50009
KFMY 280153Z 08005KT 10SM CLR 27/18 A3005 RMK AO2 SLP177 T02670183
KFMY 280053Z 09005KT 10SM CLR 27/19 A3004 RMK AO2 SLP173 T02720189
KFMY 272353Z 10005KT 10SM CLR 28/18 A3002 RMK AO2 SLP167 T02780183 10328 20278 53007
KFMY 272253Z 05007KT 10SM CLR 31/17 A3000 RMK AO2 SLP162 T03060167
KFMY 272153Z 06008KT 10SM FEW055 32/18 A3000 RMK AO2 SLP161 T03220178
KFMY 272053Z 03009KT 10SM FEW060 32/18 A3000 RMK AO2 SLP161 T03220183 56017
KFMY 271953Z 06007G17KT 10SM FEW055 33/18 A3001 RMK AO2 SLP162 T03280178
KFMY 271853Z 04009KT 10SM FEW050 33/18 A3003 RMK AO2 SLP169 T03280183
KFMY 271753Z 06007KT 10SM FEW045 32/19 A3005 RMK AO2 SLP178 T03170189 10322 20250 58016
KFMY 271653Z 07011KT 10SM FEW045 31/19 A3008 RMK AO2 SLP186 T03110194
KFMY 271553Z 09009KT 10SM CLR 31/19 A3009 RMK AO2 SLP192 T03060189
KFMY 271453Z 04009KT 10SM CLR 29/19 A3010 RMK AO2 SLP193 T02940189 50007
KFMY 271353Z 06007KT 10SM SCT046 28/19 A3010 RMK AO2 SLP194 T02830194
KFMY 271253Z 05006KT 10SM CLR 27/19 A3009 RMK AO2 SLP190 T02670194
KFMY 271153Z 06005KT 10SM CLR 25/21 A3008 RMK AO2 SLP186 T02500206 10261 20244 53012
KFMY 271053Z 05004KT 10SM FEW046 24/21 A3006 RMK AO2 SLP180 T02440211
KFMY 270953Z AUTO 00000KT 10SM SCT060 BKN085 25/21 A3005 RMK AO2 SLP177 T02500211
KFMY 270853Z AUTO 03004KT 10SM CLR 25/21 A3004 RMK AO2 SLP174 T02500211 56009
KFMY 270753Z AUTO 08003KT 10SM FEW065 25/21 A3004 RMK AO2 SLP174 T02500211
KFMY 270653Z AUTO 04004KT 10SM OVC080 26/21 A3005 RMK AO2 SLP179 T02610211
KFMY 270553Z AUTO 00000KT 10SM BKN075 26/21 A3007 RMK AO2 SLP183 T02610211 10294 20261 58003
KFMY 270453Z AUTO 06004KT 10SM CLR 26/21 A3007 RMK AO2 SLP184 T02610206 403500250
KFMY 270353Z AUTO 09007KT 10SM BKN070 OVC095 27/21 A3007 RMK AO2 LTG DSNT SW AND W SLP185 T02720206
KFMY 270253Z AUTO 13004KT 10SM BKN039 OVC060 28/21 A3008 RMK AO2 LTG DSNT W SLP186 T02780206 51015
KFMY 270153Z AUTO 13007KT 10SM FEW050 SCT070 28/21 A3007 RMK AO2 SLP184 T02830211
KFMY 270053Z 12006KT 10SM SCT036 BKN046 OVC060 29/21 A3005 RMK AO2 SLP177 T02890211
KFMY 262353Z 32007KT 10SM OVC046 29/22 A3003 RMK AO2 SLP171 T02940217 10350 20294 53013